sensor_id;sensor_type;location;lat;lon;timestamp;P1;durP1;ratioP1;P2;durP2;ratioP2
27899;SDS011;15243;50.726;7.080;2023-03-01T00:01:37;23.08;;;13.27;;
27899;SDS011;15243;50.726;7.080;2023-03-01T00:04:04;22.10;;;12.73;;
27899;SDS011;15243;50.726;7.080;2023-03-01T00:06:31;21.30;;;12.95;;
27899;SDS011;15243;50.726;7.080;2023-03-01T00:08:58;24.40;;;13.02;;
27899;SDS011;15243;50.726;7.080;2023-03-01T00:11:26;24.23;;;12.75;;
27899;SDS011;15243;50.726;7.080;2023-03-01T00:13:56;25.33;;;13.35;;
27899;SDS011;15243;50.726;7.080;2023-03-01T00:16:28;22.42;;;12.90;;
27899;SDS011;15243;50.726;7.080;2023-03-01T00:18:57;23.60;;;12.07;;
27899;SDS011;15243;50.726;7.080;2023-03-01T00:21:25;21.15;;;12.70;;
27899;SDS011;15243;50.726;7.080;2023-03-01T00:23:52;23.60;;;12.05;;
27899;SDS011;15243;50.726;7.080;2023-03-01T00:26:20;34.22;;;16.17;;
27899;SDS011;15243;50.726;7.080;2023-03-01T00:28:49;34.88;;;19.45;;
27899;SDS011;15243;50.726;7.080;2023-03-01T00:31:18;37.72;;;19.33;;
27899;SDS011;15243;50.726;7.080;2023-03-01T00:33:47;30.70;;;16.38;;
27899;SDS011;15243;50.726;7.080;2023-03-01T00:36:14;31.58;;;17.02;;
27899;SDS011;15243;50.726;7.080;2023-03-01T00:38:43;24.90;;;15.23;;
27899;SDS011;15243;50.726;7.080;2023-03-01T00:41:13;33.70;;;17.65;;
27899;SDS011;15243;50.726;7.080;2023-03-01T00:43:41;30.35;;;16.05;;
27899;SDS011;15243;50.726;7.080;2023-03-01T00:46:16;30.27;;;16.33;;
27899;SDS011;15243;50.726;7.080;2023-03-01T00:48:45;31.55;;;15.68;;
27899;SDS011;15243;50.726;7.080;2023-03-01T00:51:25;29.73;;;15.57;;
27899;SDS011;15243;50.726;7.080;2023-03-01T00:53:54;26.55;;;13.82;;
27899;SDS011;15243;50.726;7.080;2023-03-01T00:56:23;27.65;;;14.70;;
27899;SDS011;15243;50.726;7.080;2023-03-01T00:58:50;25.17;;;14.15;;
27899;SDS011;15243;50.726;7.080;2023-03-01T01:01:19;24.98;;;14.02;;
27899;SDS011;15243;50.726;7.080;2023-03-01T01:03:49;28.38;;;14.60;;
27899;SDS011;15243;50.726;7.080;2023-03-01T01:06:27;25.83;;;14.25;;
27899;SDS011;15243;50.726;7.080;2023-03-01T01:08:59;24.08;;;14.45;;
27899;SDS011;15243;50.726;7.080;2023-03-01T01:11:27;25.13;;;14.85;;
27899;SDS011;15243;50.726;7.080;2023-03-01T01:13:56;23.63;;;13.40;;
27899;SDS011;15243;50.726;7.080;2023-03-01T01:16:25;27.85;;;13.75;;
27899;SDS011;15243;50.726;7.080;2023-03-01T01:18:53;26.45;;;13.32;;
27899;SDS011;15243;50.726;7.080;2023-03-01T01:21:22;25.17;;;14.07;;
27899;SDS011;15243;50.726;7.080;2023-03-01T01:23:51;30.30;;;14.52;;
27899;SDS011;15243;50.726;7.080;2023-03-01T01:28:46;25.33;;;14.60;;
27899;SDS011;15243;50.726;7.080;2023-03-01T01:31:13;26.98;;;14.00;;
27899;SDS011;15243;50.726;7.080;2023-03-01T01:33:41;26.60;;;14.35;;
27899;SDS011;15243;50.726;7.080;2023-03-01T01:36:08;26.02;;;14.68;;
27899;SDS011;15243;50.726;7.080;2023-03-01T01:38:36;27.20;;;14.65;;
27899;SDS011;15243;50.726;7.080;2023-03-01T01:41:04;28.42;;;15.05;;
27899;SDS011;15243;50.726;7.080;2023-03-01T01:43:36;27.30;;;14.48;;
27899;SDS011;15243;50.726;7.080;2023-03-01T01:46:16;31.67;;;16.30;;
27899;SDS011;15243;50.726;7.080;2023-03-01T01:49:02;28.08;;;14.88;;
27899;SDS011;15243;50.726;7.080;2023-03-01T01:51:45;31.50;;;15.05;;
27899;SDS011;15243;50.726;7.080;2023-03-01T01:54:22;26.38;;;14.60;;
27899;SDS011;15243;50.726;7.080;2023-03-01T01:57:07;26.50;;;15.07;;
27899;SDS011;15243;50.726;7.080;2023-03-01T01:59:38;30.90;;;15.85;;
27899;SDS011;15243;50.726;7.080;2023-03-01T02:02:09;32.25;;;15.75;;
27899;SDS011;15243;50.726;7.080;2023-03-01T02:04:36;32.83;;;16.50;;
27899;SDS011;15243;50.726;7.080;2023-03-01T02:07:13;25.27;;;14.20;;
27899;SDS011;15243;50.726;7.080;2023-03-01T02:09:44;31.63;;;15.65;;
27899;SDS011;15243;50.726;7.080;2023-03-01T02:12:14;27.63;;;15.20;;
27899;SDS011;15243;50.726;7.080;2023-03-01T02:14:43;29.85;;;15.27;;
27899;SDS011;15243;50.726;7.080;2023-03-01T02:17:11;28.70;;;14.05;;
27899;SDS011;15243;50.726;7.080;2023-03-01T02:22:30;31.98;;;15.45;;
27899;SDS011;15243;50.726;7.080;2023-03-01T02:27:44;25.80;;;14.52;;
27899;SDS011;15243;50.726;7.080;2023-03-01T02:30:22;30.48;;;14.38;;
27899;SDS011;15243;50.726;7.080;2023-03-01T02:32:51;28.92;;;14.63;;
27899;SDS011;15243;50.726;7.080;2023-03-01T02:35:19;24.60;;;14.95;;
27899;SDS011;15243;50.726;7.080;2023-03-01T02:37:47;25.27;;;14.18;;
27899;SDS011;15243;50.726;7.080;2023-03-01T02:40:15;24.15;;;14.13;;
27899;SDS011;15243;50.726;7.080;2023-03-01T02:42:52;26.33;;;14.10;;
27899;SDS011;15243;50.726;7.080;2023-03-01T02:45:22;20.35;;;13.13;;
27899;SDS011;15243;50.726;7.080;2023-03-01T02:47:49;22.02;;;13.75;;
27899;SDS011;15243;50.726;7.080;2023-03-01T02:53:02;24.33;;;13.32;;
27899;SDS011;15243;50.726;7.080;2023-03-01T02:55:36;34.20;;;14.85;;
27899;SDS011;15243;50.726;7.080;2023-03-01T02:58:03;24.58;;;13.43;;
27899;SDS011;15243;50.726;7.080;2023-03-01T03:00:40;24.40;;;13.10;;
27899;SDS011;15243;50.726;7.080;2023-03-01T03:03:17;24.48;;;14.73;;
27899;SDS011;15243;50.726;7.080;2023-03-01T03:05:46;29.35;;;13.60;;
27899;SDS011;15243;50.726;7.080;2023-03-01T03:08:14;28.17;;;14.07;;
27899;SDS011;15243;50.726;7.080;2023-03-01T03:10:50;27.27;;;13.90;;
27899;SDS011;15243;50.726;7.080;2023-03-01T03:13:17;26.60;;;13.75;;
27899;SDS011;15243;50.726;7.080;2023-03-01T03:15:45;25.00;;;13.75;;
27899;SDS011;15243;50.726;7.080;2023-03-01T03:18:13;27.08;;;14.60;;
27899;SDS011;15243;50.726;7.080;2023-03-01T03:20:42;27.58;;;14.77;;
27899;SDS011;15243;50.726;7.080;2023-03-01T03:23:10;24.67;;;13.85;;
27899;SDS011;15243;50.726;7.080;2023-03-01T03:25:37;30.60;;;15.45;;
27899;SDS011;15243;50.726;7.080;2023-03-01T03:28:05;25.88;;;13.45;;
27899;SDS011;15243;50.726;7.080;2023-03-01T03:30:40;28.95;;;14.38;;
27899;SDS011;15243;50.726;7.080;2023-03-01T03:33:08;22.98;;;14.00;;
27899;SDS011;15243;50.726;7.080;2023-03-01T03:35:40;28.13;;;14.50;;
27899;SDS011;15243;50.726;7.080;2023-03-01T03:38:10;26.40;;;13.35;;
27899;SDS011;15243;50.726;7.080;2023-03-01T03:40:43;24.48;;;13.27;;
27899;SDS011;15243;50.726;7.080;2023-03-01T03:43:16;27.40;;;13.80;;
27899;SDS011;15243;50.726;7.080;2023-03-01T03:45:46;26.08;;;13.38;;
27899;SDS011;15243;50.726;7.080;2023-03-01T03:48:17;22.08;;;12.82;;
27899;SDS011;15243;50.726;7.080;2023-03-01T03:50:49;26.88;;;14.38;;
27899;SDS011;15243;50.726;7.080;2023-03-01T03:53:21;22.63;;;13.00;;
27899;SDS011;15243;50.726;7.080;2023-03-01T03:55:49;28.38;;;13.45;;
27899;SDS011;15243;50.726;7.080;2023-03-01T03:58:18;24.58;;;14.73;;
27899;SDS011;15243;50.726;7.080;2023-03-01T04:00:48;26.25;;;14.48;;
27899;SDS011;15243;50.726;7.080;2023-03-01T04:03:17;24.95;;;13.73;;
27899;SDS011;15243;50.726;7.080;2023-03-01T04:05:46;24.70;;;14.52;;
27899;SDS011;15243;50.726;7.080;2023-03-01T04:08:13;31.70;;;14.82;;
27899;SDS011;15243;50.726;7.080;2023-03-01T04:10:41;26.52;;;14.65;;
27899;SDS011;15243;50.726;7.080;2023-03-01T04:13:11;29.83;;;14.98;;
27899;SDS011;15243;50.726;7.080;2023-03-01T04:15:40;30.40;;;14.45;;
27899;SDS011;15243;50.726;7.080;2023-03-01T04:18:11;26.60;;;15.32;;
27899;SDS011;15243;50.726;7.080;2023-03-01T04:20:39;25.38;;;14.55;;
27899;SDS011;15243;50.726;7.080;2023-03-01T04:23:07;30.67;;;16.35;;
27899;SDS011;15243;50.726;7.080;2023-03-01T04:25:40;28.70;;;15.93;;
27899;SDS011;15243;50.726;7.080;2023-03-01T04:28:15;26.13;;;13.95;;
27899;SDS011;15243;50.726;7.080;2023-03-01T04:30:42;28.23;;;15.27;;
27899;SDS011;15243;50.726;7.080;2023-03-01T04:33:10;28.33;;;15.00;;
27899;SDS011;15243;50.726;7.080;2023-03-01T04:35:37;28.40;;;15.95;;
27899;SDS011;15243;50.726;7.080;2023-03-01T04:38:05;26.13;;;15.40;;
27899;SDS011;15243;50.726;7.080;2023-03-01T04:40:32;26.65;;;13.77;;
27899;SDS011;15243;50.726;7.080;2023-03-01T04:42:59;27.60;;;14.23;;
27899;SDS011;15243;50.726;7.080;2023-03-01T04:45:26;29.45;;;14.80;;
27899;SDS011;15243;50.726;7.080;2023-03-01T04:47:54;25.55;;;14.57;;
27899;SDS011;15243;50.726;7.080;2023-03-01T04:50:21;27.88;;;14.60;;
27899;SDS011;15243;50.726;7.080;2023-03-01T04:52:49;24.77;;;14.82;;
27899;SDS011;15243;50.726;7.080;2023-03-01T04:55:16;28.58;;;15.32;;
27899;SDS011;15243;50.726;7.080;2023-03-01T04:57:43;27.25;;;15.25;;
27899;SDS011;15243;50.726;7.080;2023-03-01T05:00:12;30.33;;;15.57;;
27899;SDS011;15243;50.726;7.080;2023-03-01T05:02:47;27.85;;;15.95;;
27899;SDS011;15243;50.726;7.080;2023-03-01T05:05:26;26.25;;;14.85;;
27899;SDS011;15243;50.726;7.080;2023-03-01T05:07:59;29.80;;;15.82;;
27899;SDS011;15243;50.726;7.080;2023-03-01T05:10:29;25.77;;;15.05;;
27899;SDS011;15243;50.726;7.080;2023-03-01T05:12:57;25.15;;;15.00;;
27899;SDS011;15243;50.726;7.080;2023-03-01T05:15:25;26.58;;;14.88;;
27899;SDS011;15243;50.726;7.080;2023-03-01T05:17:54;32.65;;;16.10;;
27899;SDS011;15243;50.726;7.080;2023-03-01T05:20:25;27.52;;;15.60;;
27899;SDS011;15243;50.726;7.080;2023-03-01T05:22:55;29.80;;;16.08;;
27899;SDS011;15243;50.726;7.080;2023-03-01T05:25:25;29.08;;;15.95;;
27899;SDS011;15243;50.726;7.080;2023-03-01T05:27:52;32.67;;;17.45;;
27899;SDS011;15243;50.726;7.080;2023-03-01T05:30:19;36.03;;;17.92;;
27899;SDS011;15243;50.726;7.080;2023-03-01T05:32:47;31.23;;;17.95;;
27899;SDS011;15243;50.726;7.080;2023-03-01T05:35:16;32.25;;;17.13;;
27899;SDS011;15243;50.726;7.080;2023-03-01T05:37:46;32.67;;;16.92;;
27899;SDS011;15243;50.726;7.080;2023-03-01T05:40:15;32.50;;;16.95;;
27899;SDS011;15243;50.726;7.080;2023-03-01T05:42:44;34.95;;;17.70;;
27899;SDS011;15243;50.726;7.080;2023-03-01T05:45:13;29.80;;;17.02;;
27899;SDS011;15243;50.726;7.080;2023-03-01T05:47:41;29.45;;;16.92;;
27899;SDS011;15243;50.726;7.080;2023-03-01T05:50:21;34.67;;;17.70;;
27899;SDS011;15243;50.726;7.080;2023-03-01T05:52:56;33.03;;;17.30;;
27899;SDS011;15243;50.726;7.080;2023-03-01T05:55:25;31.52;;;17.05;;
27899;SDS011;15243;50.726;7.080;2023-03-01T05:57:54;31.55;;;17.60;;
27899;SDS011;15243;50.726;7.080;2023-03-01T06:00:21;32.38;;;16.98;;
27899;SDS011;15243;50.726;7.080;2023-03-01T06:02:48;31.55;;;16.73;;
27899;SDS011;15243;50.726;7.080;2023-03-01T06:05:16;31.90;;;17.85;;
27899;SDS011;15243;50.726;7.080;2023-03-01T06:07:43;30.98;;;17.58;;
27899;SDS011;15243;50.726;7.080;2023-03-01T06:10:10;43.90;;;18.52;;
27899;SDS011;15243;50.726;7.080;2023-03-01T06:12:40;32.00;;;17.27;;
27899;SDS011;15243;50.726;7.080;2023-03-01T06:15:09;32.45;;;16.90;;
27899;SDS011;15243;50.726;7.080;2023-03-01T06:17:38;33.08;;;17.05;;
27899;SDS011;15243;50.726;7.080;2023-03-01T06:20:11;36.13;;;16.45;;
27899;SDS011;15243;50.726;7.080;2023-03-01T06:22:43;31.17;;;15.93;;
27899;SDS011;15243;50.726;7.080;2023-03-01T06:25:10;35.78;;;16.75;;
27899;SDS011;15243;50.726;7.080;2023-03-01T06:27:39;31.58;;;17.65;;
27899;SDS011;15243;50.726;7.080;2023-03-01T06:30:06;27.98;;;16.55;;
27899;SDS011;15243;50.726;7.080;2023-03-01T06:32:34;34.63;;;16.65;;
27899;SDS011;15243;50.726;7.080;2023-03-01T06:35:00;29.17;;;16.90;;
27899;SDS011;15243;50.726;7.080;2023-03-01T06:37:27;29.40;;;15.95;;
27899;SDS011;15243;50.726;7.080;2023-03-01T06:39:54;29.90;;;16.23;;
27899;SDS011;15243;50.726;7.080;2023-03-01T06:42:21;30.45;;;17.02;;
27899;SDS011;15243;50.726;7.080;2023-03-01T06:44:48;34.85;;;17.20;;
27899;SDS011;15243;50.726;7.080;2023-03-01T06:47:15;30.05;;;16.65;;
27899;SDS011;15243;50.726;7.080;2023-03-01T06:49:41;29.05;;;17.30;;
27899;SDS011;15243;50.726;7.080;2023-03-01T06:52:08;37.38;;;17.05;;
27899;SDS011;15243;50.726;7.080;2023-03-01T06:54:35;32.35;;;17.05;;
27899;SDS011;15243;50.726;7.080;2023-03-01T06:57:02;34.00;;;16.90;;
27899;SDS011;15243;50.726;7.080;2023-03-01T06:59:29;31.90;;;16.73;;
27899;SDS011;15243;50.726;7.080;2023-03-01T07:01:55;33.92;;;19.00;;
27899;SDS011;15243;50.726;7.080;2023-03-01T07:04:22;34.42;;;16.45;;
27899;SDS011;15243;50.726;7.080;2023-03-01T07:06:49;35.20;;;17.98;;
27899;SDS011;15243;50.726;7.080;2023-03-01T07:09:22;35.72;;;18.23;;
27899;SDS011;15243;50.726;7.080;2023-03-01T07:11:50;33.88;;;17.63;;
27899;SDS011;15243;50.726;7.080;2023-03-01T07:14:17;34.90;;;18.30;;
27899;SDS011;15243;50.726;7.080;2023-03-01T07:16:43;32.70;;;17.33;;
27899;SDS011;15243;50.726;7.080;2023-03-01T07:19:10;38.33;;;19.48;;
27899;SDS011;15243;50.726;7.080;2023-03-01T07:21:37;35.17;;;19.02;;
27899;SDS011;15243;50.726;7.080;2023-03-01T07:24:07;43.45;;;18.98;;
27899;SDS011;15243;50.726;7.080;2023-03-01T07:26:34;35.08;;;17.80;;
27899;SDS011;15243;50.726;7.080;2023-03-01T07:29:02;38.30;;;19.15;;
27899;SDS011;15243;50.726;7.080;2023-03-01T07:31:30;35.38;;;18.58;;
27899;SDS011;15243;50.726;7.080;2023-03-01T07:33:58;36.38;;;18.83;;
27899;SDS011;15243;50.726;7.080;2023-03-01T07:36:25;40.58;;;20.63;;
27899;SDS011;15243;50.726;7.080;2023-03-01T07:38:51;37.25;;;19.83;;
27899;SDS011;15243;50.726;7.080;2023-03-01T07:41:18;36.50;;;19.35;;
27899;SDS011;15243;50.726;7.080;2023-03-01T07:43:45;32.47;;;17.63;;
27899;SDS011;15243;50.726;7.080;2023-03-01T07:46:12;38.53;;;18.50;;
27899;SDS011;15243;50.726;7.080;2023-03-01T07:48:39;35.20;;;19.30;;
27899;SDS011;15243;50.726;7.080;2023-03-01T07:51:06;35.28;;;19.60;;
27899;SDS011;15243;50.726;7.080;2023-03-01T07:53:34;30.40;;;17.58;;
27899;SDS011;15243;50.726;7.080;2023-03-01T07:56:02;36.85;;;18.73;;
27899;SDS011;15243;50.726;7.080;2023-03-01T07:58:31;38.05;;;18.85;;
27899;SDS011;15243;50.726;7.080;2023-03-01T08:01:03;31.60;;;17.90;;
27899;SDS011;15243;50.726;7.080;2023-03-01T08:03:34;38.45;;;19.05;;
27899;SDS011;15243;50.726;7.080;2023-03-01T08:06:03;34.05;;;18.67;;
27899;SDS011;15243;50.726;7.080;2023-03-01T08:08:31;34.83;;;19.75;;
27899;SDS011;15243;50.726;7.080;2023-03-01T08:10:59;32.88;;;17.67;;
27899;SDS011;15243;50.726;7.080;2023-03-01T08:13:27;31.88;;;17.83;;
27899;SDS011;15243;50.726;7.080;2023-03-01T08:15:59;36.55;;;19.27;;
27899;SDS011;15243;50.726;7.080;2023-03-01T08:18:31;34.10;;;18.15;;
27899;SDS011;15243;50.726;7.080;2023-03-01T08:21:01;37.67;;;18.70;;
27899;SDS011;15243;50.726;7.080;2023-03-01T08:23:36;33.67;;;19.00;;
27899;SDS011;15243;50.726;7.080;2023-03-01T08:28:34;34.13;;;18.27;;
27899;SDS011;15243;50.726;7.080;2023-03-01T08:31:02;34.75;;;19.77;;
27899;SDS011;15243;50.726;7.080;2023-03-01T08:33:29;34.88;;;19.65;;
27899;SDS011;15243;50.726;7.080;2023-03-01T08:36:02;35.65;;;18.30;;
27899;SDS011;15243;50.726;7.080;2023-03-01T08:38:33;38.45;;;19.35;;
27899;SDS011;15243;50.726;7.080;2023-03-01T08:41:01;40.60;;;19.15;;
27899;SDS011;15243;50.726;7.080;2023-03-01T08:43:29;32.80;;;19.08;;
27899;SDS011;15243;50.726;7.080;2023-03-01T08:45:56;34.25;;;18.77;;
27899;SDS011;15243;50.726;7.080;2023-03-01T08:48:23;32.58;;;18.77;;
27899;SDS011;15243;50.726;7.080;2023-03-01T08:50:50;43.10;;;19.27;;
27899;SDS011;15243;50.726;7.080;2023-03-01T08:53:17;36.85;;;19.25;;
27899;SDS011;15243;50.726;7.080;2023-03-01T08:55:44;32.60;;;18.50;;
27899;SDS011;15243;50.726;7.080;2023-03-01T08:58:11;32.85;;;18.35;;
27899;SDS011;15243;50.726;7.080;2023-03-01T09:00:38;33.83;;;18.17;;
27899;SDS011;15243;50.726;7.080;2023-03-01T09:03:05;31.60;;;18.15;;
27899;SDS011;15243;50.726;7.080;2023-03-01T09:05:32;33.25;;;18.65;;
27899;SDS011;15243;50.726;7.080;2023-03-01T09:08:00;31.58;;;18.40;;
27899;SDS011;15243;50.726;7.080;2023-03-01T09:10:27;33.83;;;18.35;;
27899;SDS011;15243;50.726;7.080;2023-03-01T09:12:54;33.38;;;18.13;;
27899;SDS011;15243;50.726;7.080;2023-03-01T09:15:21;28.70;;;17.77;;
27899;SDS011;15243;50.726;7.080;2023-03-01T09:17:48;32.00;;;18.77;;
27899;SDS011;15243;50.726;7.080;2023-03-01T09:20:15;42.35;;;19.63;;
27899;SDS011;15243;50.726;7.080;2023-03-01T09:22:42;28.58;;;17.13;;
27899;SDS011;15243;50.726;7.080;2023-03-01T09:25:10;33.55;;;18.20;;
27899;SDS011;15243;50.726;7.080;2023-03-01T09:27:36;32.58;;;17.92;;
27899;SDS011;15243;50.726;7.080;2023-03-01T09:30:03;30.48;;;17.35;;
27899;SDS011;15243;50.726;7.080;2023-03-01T09:32:31;34.95;;;17.73;;
27899;SDS011;15243;50.726;7.080;2023-03-01T09:34:58;32.50;;;16.98;;
27899;SDS011;15243;50.726;7.080;2023-03-01T09:37:31;31.02;;;16.92;;
27899;SDS011;15243;50.726;7.080;2023-03-01T09:39:59;33.53;;;17.85;;
27899;SDS011;15243;50.726;7.080;2023-03-01T09:42:27;27.83;;;16.80;;
27899;SDS011;15243;50.726;7.080;2023-03-01T09:45:07;29.15;;;17.80;;
27899;SDS011;15243;50.726;7.080;2023-03-01T09:47:46;28.15;;;16.23;;
27899;SDS011;15243;50.726;7.080;2023-03-01T09:50:16;29.08;;;15.98;;
27899;SDS011;15243;50.726;7.080;2023-03-01T09:53:02;27.92;;;16.52;;
27899;SDS011;15243;50.726;7.080;2023-03-01T10:01:04;32.38;;;16.98;;
27899;SDS011;15243;50.726;7.080;2023-03-01T10:03:43;28.27;;;16.92;;
27899;SDS011;15243;50.726;7.080;2023-03-01T10:06:19;27.17;;;15.63;;
27899;SDS011;15243;50.726;7.080;2023-03-01T10:09:34;24.27;;;14.85;;
27899;SDS011;15243;50.726;7.080;2023-03-01T10:11:55;26.35;;;14.73;;
27899;SDS011;15243;50.726;7.080;2023-03-01T10:17:03;23.75;;;14.40;;
27899;SDS011;15243;50.726;7.080;2023-03-01T10:19:49;24.92;;;14.00;;
27899;SDS011;15243;50.726;7.080;2023-03-01T10:24:48;25.38;;;14.02;;
27899;SDS011;15243;50.726;7.080;2023-03-01T10:27:20;28.25;;;15.57;;
27899;SDS011;15243;50.726;7.080;2023-03-01T10:29:50;22.98;;;13.73;;
27899;SDS011;15243;50.726;7.080;2023-03-01T10:32:39;26.02;;;14.50;;
27899;SDS011;15243;50.726;7.080;2023-03-01T10:35:23;25.83;;;14.45;;
27899;SDS011;15243;50.726;7.080;2023-03-01T10:37:57;23.33;;;13.68;;
27899;SDS011;15243;50.726;7.080;2023-03-01T10:40:24;25.75;;;14.43;;
27899;SDS011;15243;50.726;7.080;2023-03-01T10:42:51;26.55;;;14.90;;
27899;SDS011;15243;50.726;7.080;2023-03-01T10:48:18;26.15;;;13.30;;
27899;SDS011;15243;50.726;7.080;2023-03-01T10:50:51;23.75;;;14.70;;
27899;SDS011;15243;50.726;7.080;2023-03-01T10:53:42;23.45;;;13.32;;
27899;SDS011;15243;50.726;7.080;2023-03-01T10:56:15;35.15;;;14.98;;
27899;SDS011;15243;50.726;7.080;2023-03-01T11:01:26;23.90;;;14.18;;
27899;SDS011;15243;50.726;7.080;2023-03-01T11:04:07;23.23;;;13.55;;
27899;SDS011;15243;50.726;7.080;2023-03-01T11:06:38;29.17;;;14.50;;
27899;SDS011;15243;50.726;7.080;2023-03-01T11:09:18;24.25;;;13.88;;
27899;SDS011;15243;50.726;7.080;2023-03-01T11:11:55;20.93;;;12.53;;
27899;SDS011;15243;50.726;7.080;2023-03-01T11:14:27;22.17;;;13.93;;
27899;SDS011;15243;50.726;7.080;2023-03-01T11:17:00;25.33;;;13.20;;
27899;SDS011;15243;50.726;7.080;2023-03-01T11:19:28;21.55;;;13.40;;
27899;SDS011;15243;50.726;7.080;2023-03-01T11:24:53;20.67;;;12.88;;
27899;SDS011;15243;50.726;7.080;2023-03-01T11:27:36;18.25;;;11.93;;
27899;SDS011;15243;50.726;7.080;2023-03-01T11:30:16;20.95;;;12.27;;
27899;SDS011;15243;50.726;7.080;2023-03-01T11:35:32;20.58;;;11.80;;
27899;SDS011;15243;50.726;7.080;2023-03-01T11:40:51;18.15;;;10.85;;
27899;SDS011;15243;50.726;7.080;2023-03-01T11:43:44;19.10;;;11.50;;
27899;SDS011;15243;50.726;7.080;2023-03-01T11:57:07;14.70;;;10.27;;
27899;SDS011;15243;50.726;7.080;2023-03-01T12:28:10;15.93;;;9.35;;
27899;SDS011;15243;50.726;7.080;2023-03-01T12:31:05;19.15;;;10.32;;
27899;SDS011;15243;50.726;7.080;2023-03-01T12:50:45;16.70;;;9.85;;
27899;SDS011;15243;50.726;7.080;2023-03-01T12:53:26;19.50;;;10.23;;
27899;SDS011;15243;50.726;7.080;2023-03-01T12:56:05;17.42;;;9.85;;
27899;SDS011;15243;50.726;7.080;2023-03-01T12:58:41;20.75;;;10.00;;
27899;SDS011;15243;50.726;7.080;2023-03-01T13:04:27;15.13;;;8.82;;
27899;SDS011;15243;50.726;7.080;2023-03-01T13:13:00;16.33;;;9.48;;
27899;SDS011;15243;50.726;7.080;2023-03-01T13:15:31;14.05;;;8.30;;
27899;SDS011;15243;50.726;7.080;2023-03-01T13:25:34;17.08;;;10.00;;
27899;SDS011;15243;50.726;7.080;2023-03-01T13:28:55;14.45;;;8.95;;
27899;SDS011;15243;50.726;7.080;2023-03-01T13:33:47;14.60;;;8.80;;
27899;SDS011;15243;50.726;7.080;2023-03-01T13:38:56;17.02;;;9.88;;
27899;SDS011;15243;50.726;7.080;2023-03-01T13:44:21;14.68;;;9.52;;
27899;SDS011;15243;50.726;7.080;2023-03-01T13:46:57;13.60;;;8.27;;
27899;SDS011;15243;50.726;7.080;2023-03-01T13:49:33;15.80;;;8.27;;
27899;SDS011;15243;50.726;7.080;2023-03-01T13:54:53;16.17;;;8.63;;
27899;SDS011;15243;50.726;7.080;2023-03-01T13:57:23;14.88;;;8.38;;
27899;SDS011;15243;50.726;7.080;2023-03-01T13:59:55;11.90;;;7.80;;
27899;SDS011;15243;50.726;7.080;2023-03-01T14:02:22;19.67;;;8.48;;
27899;SDS011;15243;50.726;7.080;2023-03-01T14:04:56;16.42;;;8.55;;
27899;SDS011;15243;50.726;7.080;2023-03-01T14:07:25;11.80;;;8.02;;
27899;SDS011;15243;50.726;7.080;2023-03-01T14:10:02;10.60;;;7.85;;
27899;SDS011;15243;50.726;7.080;2023-03-01T14:12:44;13.38;;;7.88;;
27899;SDS011;15243;50.726;7.080;2023-03-01T14:16:04;12.50;;;8.13;;
27899;SDS011;15243;50.726;7.080;2023-03-01T14:18:49;14.15;;;8.52;;
27899;SDS011;15243;50.726;7.080;2023-03-01T14:21:18;15.25;;;9.15;;
27899;SDS011;15243;50.726;7.080;2023-03-01T14:23:45;11.45;;;7.78;;
27899;SDS011;15243;50.726;7.080;2023-03-01T14:26:13;13.60;;;7.95;;
27899;SDS011;15243;50.726;7.080;2023-03-01T14:28:46;10.55;;;7.00;;
27899;SDS011;15243;50.726;7.080;2023-03-01T14:34:23;11.38;;;7.05;;
27899;SDS011;15243;50.726;7.080;2023-03-01T14:36:50;13.60;;;7.32;;
27899;SDS011;15243;50.726;7.080;2023-03-01T14:39:24;9.93;;;6.93;;
27899;SDS011;15243;50.726;7.080;2023-03-01T14:41:52;10.45;;;7.18;;
27899;SDS011;15243;50.726;7.080;2023-03-01T14:44:20;12.95;;;7.43;;
27899;SDS011;15243;50.726;7.080;2023-03-01T14:46:54;13.88;;;7.47;;
27899;SDS011;15243;50.726;7.080;2023-03-01T14:49:23;12.55;;;7.07;;
27899;SDS011;15243;50.726;7.080;2023-03-01T14:55:02;8.93;;;5.85;;
27899;SDS011;15243;50.726;7.080;2023-03-01T14:57:35;10.95;;;7.05;;
27899;SDS011;15243;50.726;7.080;2023-03-01T15:00:05;11.38;;;6.38;;
27899;SDS011;15243;50.726;7.080;2023-03-01T15:02:36;11.15;;;6.72;;
27899;SDS011;15243;50.726;7.080;2023-03-01T15:05:05;12.23;;;6.68;;
27899;SDS011;15243;50.726;7.080;2023-03-01T15:07:36;11.65;;;6.63;;
27899;SDS011;15243;50.726;7.080;2023-03-01T15:10:06;9.10;;;6.25;;
27899;SDS011;15243;50.726;7.080;2023-03-01T15:12:50;9.40;;;5.55;;
27899;SDS011;15243;50.726;7.080;2023-03-01T15:17:56;11.05;;;8.10;;
27899;SDS011;15243;50.726;7.080;2023-03-01T15:20:26;11.82;;;8.48;;
27899;SDS011;15243;50.726;7.080;2023-03-01T15:22:56;10.52;;;7.85;;
27899;SDS011;15243;50.726;7.080;2023-03-01T15:25:25;14.93;;;8.40;;
27899;SDS011;15243;50.726;7.080;2023-03-01T15:27:55;10.82;;;7.97;;
27899;SDS011;15243;50.726;7.080;2023-03-01T15:30:29;16.73;;;11.02;;
27899;SDS011;15243;50.726;7.080;2023-03-01T15:33:20;12.40;;;8.93;;
27899;SDS011;15243;50.726;7.080;2023-03-01T15:36:00;15.77;;;9.00;;
27899;SDS011;15243;50.726;7.080;2023-03-01T15:38:34;13.93;;;8.05;;
27899;SDS011;15243;50.726;7.080;2023-03-01T15:41:25;11.88;;;7.57;;
27899;SDS011;15243;50.726;7.080;2023-03-01T15:44:16;9.93;;;6.15;;
27899;SDS011;15243;50.726;7.080;2023-03-01T15:46:55;10.52;;;6.35;;
27899;SDS011;15243;50.726;7.080;2023-03-01T15:52:22;7.78;;;5.38;;
27899;SDS011;15243;50.726;7.080;2023-03-01T15:55:02;10.40;;;5.75;;
27899;SDS011;15243;50.726;7.080;2023-03-01T15:57:31;10.45;;;5.97;;
27899;SDS011;15243;50.726;7.080;2023-03-01T15:59:58;7.10;;;4.65;;
27899;SDS011;15243;50.726;7.080;2023-03-01T16:02:25;7.55;;;4.70;;
27899;SDS011;15243;50.726;7.080;2023-03-01T16:04:52;7.07;;;4.88;;
27899;SDS011;15243;50.726;7.080;2023-03-01T16:07:20;7.10;;;4.80;;
27899;SDS011;15243;50.726;7.080;2023-03-01T16:09:46;7.63;;;4.53;;
27899;SDS011;15243;50.726;7.080;2023-03-01T16:12:14;12.15;;;5.03;;
27899;SDS011;15243;50.726;7.080;2023-03-01T16:14:42;13.77;;;6.80;;
27899;SDS011;15243;50.726;7.080;2023-03-01T16:17:09;11.10;;;7.75;;
27899;SDS011;15243;50.726;7.080;2023-03-01T16:19:39;13.88;;;7.75;;
27899;SDS011;15243;50.726;7.080;2023-03-01T16:22:06;13.23;;;7.80;;
27899;SDS011;15243;50.726;7.080;2023-03-01T16:24:36;14.55;;;7.80;;
27899;SDS011;15243;50.726;7.080;2023-03-01T16:27:03;17.98;;;8.02;;
27899;SDS011;15243;50.726;7.080;2023-03-01T16:29:29;15.05;;;8.13;;
27899;SDS011;15243;50.726;7.080;2023-03-01T16:31:56;15.23;;;8.63;;
27899;SDS011;15243;50.726;7.080;2023-03-01T16:34:27;15.00;;;8.27;;
27899;SDS011;15243;50.726;7.080;2023-03-01T16:36:54;18.67;;;9.98;;
27899;SDS011;15243;50.726;7.080;2023-03-01T16:39:21;18.02;;;9.52;;
27899;SDS011;15243;50.726;7.080;2023-03-01T16:41:48;19.67;;;10.02;;
27899;SDS011;15243;50.726;7.080;2023-03-01T16:44:15;20.75;;;9.68;;
27899;SDS011;15243;50.726;7.080;2023-03-01T16:46:42;16.98;;;8.80;;
27899;SDS011;15243;50.726;7.080;2023-03-01T16:49:09;19.52;;;9.20;;
27899;SDS011;15243;50.726;7.080;2023-03-01T16:51:36;22.02;;;10.25;;
27899;SDS011;15243;50.726;7.080;2023-03-01T16:54:03;20.55;;;10.32;;
27899;SDS011;15243;50.726;7.080;2023-03-01T16:56:30;16.98;;;9.25;;
27899;SDS011;15243;50.726;7.080;2023-03-01T16:59:00;18.65;;;9.35;;
27899;SDS011;15243;50.726;7.080;2023-03-01T17:01:31;16.23;;;9.38;;